Time;durP1;ratioP1;P1;durP2;ratioP2;P2;SDS_P1;SDS_P2;PMS_P1;PMS_P2;Temp;Humidity;BMP_temperature;BMP_pressure;BME280_temperature;BME280_humidity;BME280_pressure;Samples;Min_cycle;Max_cycle;Signal;HPM_P1;HPM_P2
2021/10/06 00:00:08;;;;;;;3.95;1.90;;;;;;;11.04;100.00;100085.41;5054825;28;20051;-52
2021/10/06 00:02:34;;;;;;;;;;;;;;;11.01;100.00;100087.38;5050136;28;20040;-52
2021/10/06 00:05:01;;;;;;;5.07;2.38;;;;;;;10.98;100.00;100084.91;5049188;28;20404;-51
2021/10/06 00:07:28;;;;;;;4.00;1.77;;;;;;;10.95;100.00;100095.66;5054274;28;20052;-53
2021/10/06 00:09:54;;;;;;;4.55;2.00;;;;;;;10.99;100.00;100091.91;5057790;28;20051;-53
2021/10/06 00:12:21;;;;;;;7.43;2.00;;;;;;;11.00;100.00;100099.78;5059747;28;20055;-54
2021/10/06 00:14:47;;;;;;;2.28;1.60;;;;;;;10.95;100.00;100093.84;5066668;28;20059;-53
2021/10/06 00:17:22;;;;;;;4.25;1.75;;;;;;;10.89;100.00;100095.03;5060541;28;20068;-54
2021/10/06 00:19:48;;;;;;;4.13;1.60;;;;;;;10.92;100.00;100109.06;5060565;28;20048;-52
2021/10/06 00:22:15;;;;;;;3.28;1.60;;;;;;;10.91;99.94;100100.25;5059525;28;20049;-53
2021/10/06 00:24:41;;;;;;;4.63;1.75;;;;;;;10.92;99.59;100095.81;5058558;28;20691;-52
2021/10/06 00:27:08;;;;;;;3.72;1.38;;;;;;;10.96;99.59;100103.53;5059599;28;20047;-60
2021/10/06 00:29:34;;;;;;;5.72;1.60;;;;;;;10.97;98.86;100107.03;5056039;28;20052;-53
2021/10/06 00:32:01;;;;;;;3.00;1.70;;;;;;;10.93;99.05;100102.81;5059256;28;20041;-52
2021/10/06 00:34:27;;;;;;;6.50;1.35;;;;;;;10.89;99.10;100105.63;5062454;28;20052;-52
2021/10/06 00:36:54;;;;;;;5.05;1.45;;;;;;;10.90;98.96;100115.28;5062444;28;20425;-51
2021/10/06 00:39:20;;;;;;;3.65;1.38;;;;;;;10.96;98.29;100108.81;5058693;28;20048;-56
2021/10/06 00:41:47;;;;;;;4.85;1.35;;;;;;;10.95;97.99;100109.75;5059023;28;20044;-54
2021/10/06 00:44:18;;;;;;;2.97;1.38;;;;;;;10.90;98.19;100112.63;5059139;28;20686;-53
2021/10/06 00:46:46;;;;;;;3.17;1.52;;;;;;;10.85;98.31;100097.94;5058077;28;20044;-53
2021/10/06 00:49:13;;;;;;;3.72;1.20;;;;;;;10.90;97.67;100102.03;5058836;28;20048;-57
2021/10/06 00:51:41;;;;;;;6.18;1.52;;;;;;;10.89;98.01;100108.28;5057805;28;20044;-53
2021/10/06 00:54:08;;;;;;;4.93;1.60;;;;;;;10.85;97.72;100109.41;5058211;28;20231;-52
2021/10/06 00:56:35;;;;;;;2.85;1.17;;;;;;;10.80;98.63;100102.63;5061171;28;20045;-53
2021/10/06 00:59:02;;;;;;;4.53;1.27;;;;;;;10.81;98.63;100114.94;5058142;28;20048;-52
2021/10/06 01:01:29;;;;;;;2.88;1.40;;;;;;;10.78;98.31;100117.72;5058372;28;20049;-53
2021/10/06 01:03:56;;;;;;;3.90;1.33;;;;;;;10.75;98.99;100116.09;5058297;28;20056;-53
2021/10/06 01:06:22;;;;;;;2.72;1.08;;;;;;;10.74;99.39;100126.75;5055874;28;20058;-53
2021/10/06 01:08:49;;;;;;;3.17;1.52;;;;;;;10.71;99.13;100119.81;5056809;28;20397;-53
2021/10/06 01:11:15;;;;;;;4.47;1.40;;;;;;;10.68;99.17;100121.81;5059165;28;20041;-53
2021/10/06 01:13:42;;;;;;;3.75;1.33;;;;;;;10.69;99.09;100126.16;5059066;28;20041;-53
2021/10/06 01:16:10;;;;;;;4.00;1.10;;;;;;;10.75;98.52;100131.13;5056514;28;20040;-54
2021/10/06 01:18:36;;;;;;;3.75;1.25;;;;;;;10.81;97.70;100134.31;5040981;28;20111;-53
2021/10/06 01:21:18;;;;;;;4.10;1.50;;;;;;;10.78;96.35;100129.19;5059398;28;20049;-53
2021/10/06 01:23:46;;;;;;;4.55;1.02;;;;;;;10.90;96.29;100138.28;5058565;28;20391;-52
2021/10/06 01:26:18;;;;;;;3.35;1.60;;;;;;;10.94;96.29;100144.28;5059545;28;20513;-53
2021/10/06 01:28:49;;;;;;;4.10;1.40;;;;;;;11.00;95.42;100141.31;5057416;28;20129;-53
2021/10/06 01:31:16;;;;;;;5.32;1.40;;;;;;;11.04;95.14;100148.13;5060590;28;20044;-53
2021/10/06 01:33:43;;;;;;;3.65;0.95;;;;;;;11.03;94.50;100149.06;5065858;28;20040;-54
2021/10/06 01:36:10;;;;;;;5.00;1.10;;;;;;;11.04;94.33;100150.78;5062899;28;20349;-53
2021/10/06 01:38:37;;;;;;;3.83;1.00;;;;;;;10.94;94.13;100139.84;5061703;28;20135;-53
2021/10/06 01:41:03;;;;;;;5.28;1.40;;;;;;;11.10;93.43;100155.78;5057119;28;20052;-58
2021/10/06 01:43:30;;;;;;;3.30;1.10;;;;;;;11.12;93.36;100157.41;5057561;28;20337;-53
2021/10/06 01:45:56;;;;;;;2.58;1.08;;;;;;;11.07;93.65;100163.88;5062769;28;20044;-52
2021/10/06 01:48:23;;;;;;;3.72;1.35;;;;;;;11.09;93.49;100165.53;5059481;28;20047;-52
2021/10/06 01:50:49;;;;;;;3.10;1.30;;;;;;;11.05;93.13;100166.63;5059741;28;20044;-53
2021/10/06 01:53:16;;;;;;;4.70;1.33;;;;;;;11.07;93.60;100164.75;5058113;28;20037;-53
2021/10/06 01:55:43;;;;;;;3.58;1.45;;;;;;;11.06;93.44;100167.47;5056817;28;20044;-52
2021/10/06 01:58:13;;;;;;;4.90;1.42;;;;;;;11.02;93.96;100174.72;5055176;28;20055;-54
2021/10/06 02:00:41;;;;;;;3.97;1.30;;;;;;;11.03;93.80;100178.22;5056444;28;20044;-54
2021/10/06 02:03:07;;;;;;;2.83;1.17;;;;;;;11.02;94.34;100185.31;5060542;28;20466;-54
2021/10/06 02:05:34;;;;;;;3.78;1.10;;;;;;;11.08;94.11;100187.66;5057521;28;20509;-53
2021/10/06 02:08:02;;;;;;;4.72;1.10;;;;;;;11.10;93.94;100190.22;5057368;28;20045;-54
2021/10/06 02:10:29;;;;;;;3.42;1.60;;;;;;;11.14;93.81;100192.66;5059293;28;20429;-53
2021/10/06 02:12:57;;;;;;;4.22;1.50;;;;;;;11.15;93.75;100196.16;5059734;28;20055;-53
2021/10/06 02:15:25;;;;;;;2.88;1.38;;;;;;;11.17;93.83;100191.63;5055271;28;20060;-53
2021/10/06 02:17:52;;;;;;;2.72;1.42;;;;;;;11.20;93.89;100188.78;5054870;28;20053;-53
2021/10/06 02:20:19;;;;;;;3.55;1.10;;;;;;;11.23;93.54;100196.59;5052004;28;20660;-54
2021/10/06 02:22:45;;;;;;;3.63;1.55;;;;;;;11.23;92.99;100189.50;5053253;28;20052;-52
2021/10/06 02:25:12;;;;;;;4.97;1.35;;;;;;;11.25;93.10;100182.31;5052290;28;20044;-53
2021/10/06 02:27:39;;;;;;;3.70;1.40;;;;;;;11.27;93.39;100182.25;5055184;28;20052;-53
2021/10/06 02:30:06;;;;;;;5.55;1.35;;;;;;;11.34;92.44;100185.41;5057574;28;20049;-52
2021/10/06 02:32:33;;;;;;;4.53;1.48;;;;;;;11.28;93.14;100183.09;5052332;28;20049;-54
2021/10/06 02:34:59;;;;;;;7.45;1.60;;;;;;;11.25;92.91;100186.78;5054259;28;20056;-53
2021/10/06 02:37:26;;;;;;;3.58;1.23;;;;;;;11.27;93.10;100186.69;5052714;28;20052;-53
2021/10/06 02:39:52;;;;;;;3.72;1.33;;;;;;;11.21;93.22;100182.56;5058442;28;20051;-61
2021/10/06 02:42:19;;;;;;;5.55;1.73;;;;;;;11.20;93.56;100191.44;5064442;28;20044;-54
2021/10/06 02:44:45;;;;;;;6.95;2.08;;;;;;;11.21;93.42;100196.66;5065637;28;20623;-60
2021/10/06 02:47:12;;;;;;;3.25;1.50;;;;;;;11.18;93.93;100193.31;5062941;28;20052;-55
2021/10/06 02:49:39;;;;;;;4.90;1.50;;;;;;;11.18;94.54;100203.91;5058754;28;20040;-53
2021/10/06 02:52:05;;;;;;;6.18;1.70;;;;;;;11.02;94.69;100181.84;5056861;28;20040;-52
2021/10/06 02:54:32;;;;;;;3.97;1.60;;;;;;;11.11;94.63;100208.69;5057453;28;20044;-53
2021/10/06 02:57:01;;;;;;;5.35;1.70;;;;;;;11.10;95.05;100214.94;5062224;28;20036;-52
2021/10/06 02:59:28;;;;;;;3.75;1.73;;;;;;;11.11;94.79;100210.50;5055060;28;20052;-52
2021/10/06 03:01:55;;;;;;;4.10;1.58;;;;;;;11.08;94.86;100214.16;5055023;28;20054;-54
2021/10/06 03:04:23;;;;;;;5.63;1.60;;;;;;;11.07;95.76;100211.59;5057433;28;20132;-53
2021/10/06 03:06:51;;;;;;;4.07;1.52;;;;;;;11.04;95.46;100222.34;5056753;28;20143;-53
2021/10/06 03:09:17;;;;;;;4.80;1.65;;;;;;;10.99;95.78;100225.25;5055540;28;20044;-52
2021/10/06 03:11:44;;;;;;;6.80;1.85;;;;;;;10.98;96.32;100222.66;5059478;28;20049;-53
2021/10/06 03:14:11;;;;;;;2.35;1.52;;;;;;;10.94;96.16;100229.06;5054937;28;20494;-53
2021/10/06 03:16:37;;;;;;;2.78;1.42;;;;;;;10.83;95.90;100214.56;5061570;28;20509;-52
2021/10/06 03:19:04;;;;;;;6.78;1.80;;;;;;;10.92;96.22;100230.91;5058735;28;20756;-53
2021/10/06 03:21:31;;;;;;;4.25;1.92;;;;;;;10.87;96.65;100226.69;5062822;28;20048;-53
2021/10/06 03:23:57;;;;;;;6.78;1.70;;;;;;;10.88;96.63;100232.84;5061268;28;20095;-52
2021/10/06 03:26:24;;;;;;;4.65;2.08;;;;;;;10.82;96.49;100227.88;5052569;28;20151;-52
2021/10/06 03:28:50;;;;;;;11.18;2.90;;;;;;;10.79;97.32;100236.84;5054889;28;20520;-54
2021/10/06 03:31:17;;;;;;;5.15;1.70;;;;;;;10.75;97.25;100232.63;5057817;28;20051;-52
2021/10/06 03:33:43;;;;;;;3.80;1.65;;;;;;;10.77;97.17;100241.34;5055569;28;20489;-53
2021/10/06 03:36:10;;;;;;;4.25;1.60;;;;;;;10.66;96.75;100214.56;5055923;28;20044;-55
2021/10/06 03:38:36;;;;;;;3.15;1.33;;;;;;;10.79;97.02;100244.78;5057011;28;20056;-53
2021/10/06 03:41:03;;;;;;;5.55;1.50;;;;;;;10.77;97.23;100251.94;5055948;28;20056;-53
2021/10/06 03:43:29;;;;;;;4.25;2.00;;;;;;;10.75;97.26;100252.94;5052706;28;20056;-53
2021/10/06 03:45:56;;;;;;;5.47;1.77;;;;;;;10.73;97.52;100252.16;5053456;28;20470;-52
2021/10/06 03:48:22;;;;;;;8.05;1.90;;;;;;;10.74;97.44;100256.53;5055820;28;20159;-53
2021/10/06 03:50:49;;;;;;;4.30;1.70;;;;;;;10.72;97.71;100269.00;5060968;28;20040;-53
2021/10/06 03:53:15;;;;;;;3.90;1.95;;;;;;;10.71;98.03;100265.47;5053698;28;20064;-53
2021/10/06 03:55:42;;;;;;;5.68;2.10;;;;;;;10.71;97.56;100272.56;5054289;28;20441;-54
2021/10/06 03:58:09;;;;;;;3.28;1.48;;;;;;;10.70;96.97;100282.34;5050873;28;20398;-53
2021/10/06 04:00:36;;;;;;;6.90;1.95;;;;;;;10.68;97.40;100286.00;5052179;28;20053;-53
2021/10/06 04:03:12;;;;;;;5.05;1.75;;;;;;;10.67;97.53;100284.28;5050666;28;20143;-52
2021/10/06 04:05:39;;;;;;;5.10;1.90;;;;;;;10.61;97.36;100282.78;5055657;28;20052;-52
2021/10/06 04:08:06;;;;;;;3.88;1.92;;;;;;;10.64;97.67;100287.94;5055205;28;20436;-53
2021/10/06 04:10:34;;;;;;;4.70;2.38;;;;;;;10.69;97.23;100288.56;5052551;28;20052;-53
2021/10/06 04:13:00;;;;;;;5.75;1.92;;;;;;;10.76;96.67;100299.69;5050337;28;20041;-53
2021/10/06 04:15:27;;;;;;;7.88;1.80;;;;;;;10.83;97.16;100299.34;5051148;28;20045;-55
2021/10/06 04:17:54;;;;;;;4.53;1.73;;;;;;;10.86;95.62;100296.50;5054929;28;20505;-52
2021/10/06 04:20:20;;;;;;;8.07;2.13;;;;;;;10.90;95.60;100303.38;5052504;28;20063;-54
2021/10/06 04:22:47;;;;;;;4.28;1.83;;;;;;;10.96;94.71;100301.38;5048543;28;20052;-51
2021/10/06 04:25:13;;;;;;;3.60;1.60;;;;;;;11.03;94.06;100306.28;5054096;28;20053;-53
2021/10/06 04:27:40;;;;;;;6.28;1.85;;;;;;;11.06;93.28;100295.53;5049242;28;20041;-52
2021/10/06 04:30:08;;;;;;;4.15;1.70;;;;;;;11.04;93.45;100301.81;5056566;28;20608;-52
2021/10/06 04:32:34;;;;;;;10.40;2.00;;;;;;;11.05;93.05;100298.25;5056328;28;20052;-55
2021/10/06 04:35:01;;;;;;;4.55;1.90;;;;;;;11.04;93.23;100301.81;5054822;28;20434;-52
2021/10/06 04:37:27;;;;;;;6.53;2.15;;;;;;;11.01;92.74;100292.25;5053502;28;20052;-53
2021/10/06 04:39:54;;;;;;;5.50;2.08;;;;;;;11.02;92.56;100301.06;5058005;28;20055;-53
2021/10/06 04:42:20;;;;;;;11.07;2.30;;;;;;;11.00;92.78;100300.28;5055379;28;20422;-56
2021/10/06 04:44:47;;;;;;;5.85;2.15;;;;;;;11.02;93.00;100303.72;5057158;28;20045;-52
2021/10/06 04:47:13;;;;;;;7.28;2.30;;;;;;;11.04;92.74;100304.47;5043753;28;20060;-53
2021/10/06 04:49:40;;;;;;;6.32;2.42;;;;;;;11.03;92.43;100306.28;5053180;28;20053;-53
2021/10/06 04:52:06;;;;;;;7.22;1.95;;;;;;;11.05;92.24;100309.69;5057737;28;20044;-54
2021/10/06 04:54:33;;;;;;;5.28;2.00;;;;;;;11.07;92.39;100312.28;5054278;28;20053;-53
2021/10/06 04:56:59;;;;;;;4.68;2.35;;;;;;;11.07;92.82;100313.13;5053744;28;20040;-52
2021/10/06 04:59:25;;;;;;;5.07;2.03;;;;;;;11.10;92.78;100312.13;5055956;28;20067;-53
2021/10/06 05:01:52;;;;;;;6.43;2.00;;;;;;;11.09;92.33;100319.22;5055595;28;20688;-53
2021/10/06 05:04:19;;;;;;;9.50;2.60;;;;;;;11.05;92.43;100314.13;5055279;28;20048;-52
2021/10/06 05:06:45;;;;;;;8.32;2.80;;;;;;;11.06;92.60;100313.22;5062154;28;20059;-53
2021/10/06 05:09:12;;;;;;;7.55;2.97;;;;;;;11.04;92.70;100318.59;5058275;28;20067;-53
2021/10/06 05:11:38;;;;;;;9.20;2.67;;;;;;;11.02;92.99;100323.09;5058136;28;20040;-53
2021/10/06 05:14:05;;;;;;;7.28;2.78;;;;;;;10.97;93.43;100316.34;5063994;28;20040;-57
2021/10/06 05:16:31;;;;;;;8.02;2.42;;;;;;;10.89;93.22;100320.22;5056354;28;20048;-53
2021/10/06 05:18:58;;;;;;;5.35;2.35;;;;;;;10.87;93.56;100308.81;5056603;28;20052;-54
2021/10/06 05:21:24;;;;;;;4.85;2.10;;;;;;;10.87;93.49;100318.56;5052025;28;20079;-54
2021/10/06 05:23:50;;;;;;;8.50;2.67;;;;;;;10.89;93.62;100309.59;5055745;28;20833;-54
2021/10/06 05:26:17;;;;;;;9.13;2.75;;;;;;;10.91;93.46;100320.13;5057428;28;20060;-52
2021/10/06 05:28:44;;;;;;;5.63;2.28;;;;;;;10.95;93.27;100323.50;5053622;28;20185;-54
2021/10/06 05:31:11;;;;;;;8.85;2.50;;;;;;;10.96;93.55;100333.16;5054168;28;20044;-54
2021/10/06 05:33:38;;;;;;;6.80;2.05;;;;;;;10.94;93.45;100335.88;5056508;28;20052;-52
2021/10/06 05:36:05;;;;;;;7.90;2.08;;;;;;;10.95;93.74;100339.38;5059462;28;20051;-51
2021/10/06 05:38:31;;;;;;;7.95;2.70;;;;;;;10.98;93.25;100334.81;5055847;28;20051;-54
2021/10/06 05:40:58;;;;;;;7.53;2.53;;;;;;;10.98;93.56;100340.09;5061245;28;20051;-53
2021/10/06 05:43:24;;;;;;;8.85;2.70;;;;;;;10.96;93.72;100336.66;5057388;28;22050;-53
2021/10/06 05:45:51;;;;;;;7.72;2.72;;;;;;;10.98;93.15;100345.41;5064162;28;20049;-52
2021/10/06 05:48:17;;;;;;;7.88;2.63;;;;;;;11.02;92.83;100344.28;5056769;28;20489;-54
2021/10/06 05:50:44;;;;;;;6.22;2.60;;;;;;;11.02;92.55;100340.81;5061046;28;20063;-53
2021/10/06 05:53:10;;;;;;;9.32;2.88;;;;;;;11.01;92.22;100342.63;5061630;28;20044;-52
2021/10/06 05:55:37;;;;;;;7.10;2.45;;;;;;;11.01;92.15;100333.81;5062066;28;20048;-54
2021/10/06 05:58:08;;;;;;;10.65;3.22;;;;;;;11.12;93.87;100342.94;5054559;28;20049;-54
2021/10/06 06:00:34;;;;;;;9.13;2.60;;;;;;;11.19;92.18;100343.47;5056806;28;20048;-53
2021/10/06 06:03:01;;;;;;;9.38;3.13;;;;;;;11.21;92.75;100346.88;5056209;28;20052;-52
2021/10/06 06:05:27;;;;;;;13.75;2.70;;;;;;;11.25;91.78;100345.81;5062382;28;20055;-54
2021/10/06 06:07:54;;;;;;;9.38;2.95;;;;;;;11.31;90.99;100347.31;5060953;28;20040;-53
2021/10/06 06:10:20;;;;;;;13.82;2.88;;;;;;;11.45;94.24;100353.63;5057762;28;20514;-53
2021/10/06 06:12:47;;;;;;;24.30;3.45;;;;;;;11.46;91.37;100357.13;5056694;28;20079;-53
2021/10/06 06:15:14;;;;;;;9.98;2.67;;;;;;;11.49;90.48;100360.47;5063020;28;20043;-52
2021/10/06 06:17:41;;;;;;;14.82;3.05;;;;;;;11.56;90.63;100367.19;5060316;28;20048;-52
2021/10/06 06:20:14;;;;;;;6.88;2.13;;;;;;;11.53;89.08;100371.78;5059554;28;20040;-54
2021/10/06 06:22:41;;;;;;;113.38;12.98;;;;;;;11.45;89.41;100382.78;5060358;28;20037;-53
2021/10/06 06:25:09;;;;;;;67.75;9.55;;;;;;;11.41;90.05;100373.25;5059455;28;20048;-52
2021/10/06 06:27:36;;;;;;;8.88;2.55;;;;;;;11.37;89.70;100387.59;5058958;28;20079;-54
2021/10/06 06:30:05;;;;;;;15.32;2.58;;;;;;;11.36;90.48;100377.94;5060400;28;20048;-52
2021/10/06 06:32:32;;;;;;;10.52;2.60;;;;;;;11.39;90.50;100387.53;5051674;28;20060;-52
2021/10/06 06:34:58;;;;;;;5.57;1.83;;;;;;;11.48;90.03;100398.53;5051911;28;20043;-52
2021/10/06 06:37:25;;;;;;;13.07;2.40;;;;;;;11.41;89.54;100369.75;5052415;28;20049;-52
2021/10/06 06:39:51;;;;;;;4.65;2.00;;;;;;;11.45;89.37;100372.19;5053331;28;20052;-53
2021/10/06 06:42:18;;;;;;;70.28;7.32;;;;;;;11.60;90.22;100389.97;5055592;28;20055;-54
2021/10/06 06:44:44;;;;;;;5.65;2.10;;;;;;;11.66;89.38;100387.91;5053364;28;20047;-52
2021/10/06 06:47:11;;;;;;;73.82;7.70;;;;;;;11.68;88.93;100394.00;5054400;28;20055;-52
2021/10/06 06:49:37;;;;;;;15.35;2.60;;;;;;;11.63;88.95;100401.34;5056139;28;20040;-52
2021/10/06 06:52:04;;;;;;;10.30;2.58;;;;;;;11.58;88.94;100398.94;5056535;28;20064;-53
2021/10/06 06:54:32;;;;;;;8.85;2.20;;;;;;;11.51;89.52;100408.13;5055895;28;20047;-53
2021/10/06 06:56:59;;;;;;;9.65;2.28;;;;;;;11.45;90.10;100408.44;5054335;28;20135;-53
2021/10/06 06:59:25;;;;;;;30.65;4.40;;;;;;;11.48;90.38;100398.53;5053263;28;20129;-53
2021/10/06 07:01:53;;;;;;;5.78;2.53;;;;;;;11.53;89.39;100406.25;5048233;28;20045;-54
2021/10/06 07:04:20;;;;;;;47.47;5.70;;;;;;;11.65;89.32;100415.41;5052945;28;20117;-53
2021/10/06 07:06:47;;;;;;;28.45;3.38;;;;;;;11.75;89.17;100421.94;5051586;28;20497;-53
2021/10/06 07:09:13;;;;;;;5.63;2.30;;;;;;;11.78;87.99;100419.16;5051223;28;20059;-52
2021/10/06 07:11:41;;;;;;;20.23;3.50;;;;;;;11.88;89.01;100418.59;5049685;28;20409;-52
2021/10/06 07:14:07;;;;;;;201.13;24.25;;;;;;;11.97;87.83;100419.03;5051356;28;20044;-52
2021/10/06 07:16:34;;;;;;;37.75;6.78;;;;;;;12.08;87.11;100420.22;5050029;28;20087;-53
2021/10/06 07:19:00;;;;;;;19.98;4.43;;;;;;;12.06;87.24;100422.09;5055532;28;20674;-53
2021/10/06 07:21:27;;;;;;;38.67;5.35;;;;;;;12.21;87.50;100421.28;5057964;28;20116;-51
2021/10/06 07:23:55;;;;;;;24.30;3.97;;;;;;;12.28;86.12;100424.44;5051173;28;20056;-53
2021/10/06 07:26:21;;;;;;;380.38;61.63;;;;;;;12.27;85.87;100428.94;5052498;28;20046;-54
2021/10/06 07:28:48;;;;;;;18.67;3.95;;;;;;;12.26;85.59;100442.28;5053907;28;20059;-52
2021/10/06 07:31:15;;;;;;;767.90;100.47;;;;;;;12.28;86.26;100441.25;5054721;28;20410;-53
2021/10/06 07:33:41;;;;;;;85.38;11.35;;;;;;;12.31;85.12;100442.88;5054997;28;20524;-51
2021/10/06 07:36:08;;;;;;;1322.97;143.88;;;;;;;12.34;83.77;100452.47;5054305;28;20039;-54
2021/10/06 07:38:34;;;;;;;1999.90;521.05;;;;;;;12.27;85.37;100452.84;5055823;28;20436;-52
2021/10/06 07:41:01;;;;;;;702.03;83.13;;;;;;;12.29;84.75;100461.53;5053962;28;20041;-53
2021/10/06 07:43:28;;;;;;;957.15;109.95;;;;;;;12.33;84.34;100469.34;5059471;28;20053;-52
2021/10/06 07:45:57;;;;;;;702.85;77.38;;;;;;;12.27;84.47;100467.91;5059572;28;20072;-53
2021/10/06 07:48:24;;;;;;;1007.38;117.25;;;;;;;12.20;84.93;100459.38;5061380;28;20065;-52
2021/10/06 07:50:50;;;;;;;13.00;2.58;;;;;;;12.19;84.77;100465.63;5053462;28;20063;-52
2021/10/06 07:53:17;;;;;;;46.05;7.22;;;;;;;12.11;85.26;100473.16;5051126;28;20059;-52
2021/10/06 07:55:43;;;;;;;8.32;3.15;;;;;;;12.12;85.22;100474.84;5052132;28;20791;-52
2021/10/06 07:58:09;;;;;;;11.30;2.70;;;;;;;12.11;85.32;100483.78;5048647;28;20161;-52
2021/10/06 08:00:36;;;;;;;5.88;2.55;;;;;;;12.12;84.73;100472.19;5045204;28;20542;-54
2021/10/06 08:03:04;;;;;;;6.68;2.60;;;;;;;12.18;85.82;100468.38;5048242;28;20102;-53
2021/10/06 08:05:30;;;;;;;7.85;2.40;;;;;;;12.29;84.25;100481.94;5049941;28;20040;-51
2021/10/06 08:07:57;;;;;;;8.57;2.60;;;;;;;12.40;84.09;100484.91;5048884;28;20052;-52
2021/10/06 08:10:23;;;;;;;7.47;2.03;;;;;;;12.51;83.90;100479.88;5053143;28;20052;-52
2021/10/06 08:12:50;;;;;;;9.45;2.40;;;;;;;12.55;83.44;100488.53;5049229;28;20048;-53
2021/10/06 08:15:16;;;;;;;6.50;2.10;;;;;;;12.57;82.85;100491.97;5050226;28;20068;-52
2021/10/06 08:17:43;;;;;;;5.35;1.98;;;;;;;12.56;81.88;100488.44;5047846;28;20044;-53
2021/10/06 08:20:09;;;;;;;5.35;1.95;;;;;;;12.68;83.15;100492.25;5048913;28;20237;-54
2021/10/06 08:22:36;;;;;;;9.73;2.55;;;;;;;12.92;82.36;100503.31;5054755;28;20052;-53
2021/10/06 08:25:03;;;;;;;6.85;2.20;;;;;;;13.18;79.35;100501.94;5054513;28;20466;-53
2021/10/06 08:27:29;;;;;;;9.57;2.10;;;;;;;13.52;77.24;100498.22;5056373;28;20189;-52
2021/10/06 08:29:56;;;;;;;5.80;1.60;;;;;;;13.73;75.28;100498.75;5052932;28;20442;-53
2021/10/06 08:32:22;;;;;;;6.57;1.88;;;;;;;14.01;74.48;100505.03;5052940;28;20552;-52
2021/10/06 08:34:49;;;;;;;8.65;1.88;;;;;;;14.35;71.16;100501.19;5054923;28;20536;-55
2021/10/06 08:37:16;;;;;;;5.82;1.60;;;;;;;14.54;70.76;100508.97;5057110;28;20083;-52
2021/10/06 08:39:42;;;;;;;6.57;1.80;;;;;;;14.84;68.81;100513.34;5058256;28;20140;-53
2021/10/06 08:42:09;;;;;;;372.10;39.90;;;;;;;15.17;68.35;100505.00;5059447;28;20044;-53
2021/10/06 08:44:35;;;;;;;11.35;2.33;;;;;;;15.39;67.17;100494.69;5054632;28;20398;-53
2021/10/06 08:47:02;;;;;;;23.55;2.55;;;;;;;15.44;66.36;100506.75;5056655;28;20059;-53
2021/10/06 08:49:29;;;;;;;65.28;7.35;;;;;;;15.12;66.85;100502.63;5056796;28;20079;-53
2021/10/06 08:51:56;;;;;;;11.00;1.60;;;;;;;14.94;67.59;100525.16;5058374;28;20044;-52
2021/10/06 08:54:22;;;;;;;13.20;2.17;;;;;;;14.63;68.52;100523.53;5053384;28;20052;-52
2021/10/06 08:56:50;;;;;;;64.28;5.55;;;;;;;14.77;68.85;100515.56;5055749;28;20043;-54
2021/10/06 08:59:17;;;;;;;4.82;1.42;;;;;;;15.09;68.03;100508.19;5054420;28;20055;-53
2021/10/06 09:01:45;;;;;;;8.48;1.50;;;;;;;15.24;68.02;100519.69;5052368;28;20047;-53
2021/10/06 09:04:13;;;;;;;16.40;2.42;;;;;;;15.19;67.24;100511.09;5057732;28;20135;-53
2021/10/06 09:06:42;;;;;;;9.23;1.67;;;;;;;15.16;67.91;100503.28;5054138;28;20048;-51
2021/10/06 09:09:23;;;;;;;5.72;1.52;;;;;;;15.28;67.10;100515.84;5052313;28;20506;-52
2021/10/06 09:11:53;;;;;;;6.53;1.40;;;;;;;14.92;66.93;100517.25;5056759;28;20140;-54
2021/10/06 09:14:20;;;;;;;9.73;1.45;;;;;;;14.95;66.92;100505.53;5053784;28;21143;-53
2021/10/06 09:17:02;;;;;;;11.75;1.60;;;;;;;14.86;67.07;100508.78;5055363;28;20101;-54
2021/10/06 09:19:37;;;;;;;6.85;1.65;;;;;;;14.64;68.44;100520.75;5054853;28;20118;-52
2021/10/06 09:22:06;;;;;;;30.38;2.67;;;;;;;14.60;69.90;100518.41;5055194;28;20427;-53
2021/10/06 09:24:50;;;;;;;8.27;1.40;;;;;;;14.73;67.94;100520.22;5054560;28;20048;-53
2021/10/06 09:27:25;;;;;;;4.20;1.40;;;;;;;14.82;67.50;100524.09;5058256;28;20057;-52
2021/10/06 09:29:54;;;;;;;6.72;1.63;;;;;;;14.73;68.63;100530.00;5056639;28;20454;-54
2021/10/06 09:32:35;;;;;;;34.75;3.47;;;;;;;14.90;66.85;100526.28;5055248;28;20056;-53
2021/10/06 09:35:05;;;;;;;27.08;2.58;;;;;;;15.03;65.48;100529.91;5054395;28;20051;-53
2021/10/06 09:37:32;;;;;;;;;;;;;;;15.02;64.52;100523.72;5055523;28;20056;-51
2021/10/06 09:39:59;;;;;;;6.43;1.50;;;;;;;14.81;65.21;100527.72;5053379;28;19928;-53
2021/10/06 09:42:26;;;;;;;2.95;1.30;;;;;;;14.60;66.37;100542.38;5058557;28;20052;-53
2021/10/06 09:44:57;;;;;;;6.32;1.35;;;;;;;14.52;66.53;100531.31;5056974;28;20061;-53
2021/10/06 09:47:25;;;;;;;479.33;39.17;;;;;;;14.45;67.84;100541.50;5056552;28;20048;-54
2021/10/06 09:49:53;;;;;;;11.55;1.65;;;;;;;14.36;67.28;100536.69;5055904;28;20052;-54
2021/10/06 09:52:33;;;;;;;26.08;3.92;;;;;;;14.24;69.13;100535.63;5056547;28;20044;-54
2021/10/06 09:55:05;;;;;;;11.57;2.10;;;;;;;14.23;68.58;100527.72;5053604;28;20055;-51
2021/10/06 09:57:37;;;;;;;7.65;1.50;;;;;;;14.22;67.68;100523.34;5056088;28;20406;-52
2021/10/06 10:00:07;;;;;;;6.00;1.40;;;;;;;14.26;68.68;100531.06;5055933;28;20045;-53
2021/10/06 10:02:35;;;;;;;15.55;2.08;;;;;;;14.36;68.42;100523.38;5053602;28;20497;-53
2021/10/06 10:05:04;;;;;;;7.95;1.98;;;;;;;14.37;66.52;100530.41;5054921;28;20056;-52
2021/10/06 10:07:30;;;;;;;6.28;2.53;;;;;;;14.32;67.18;100517.34;5058613;28;20044;-53
2021/10/06 10:09:57;;;;;;;7.88;2.97;;;;;;;14.42;67.14;100514.19;5052716;28;20502;-52
2021/10/06 10:12:26;;;;;;;3.58;1.55;;;;;;;14.42;67.62;100523.03;5055245;28;20056;-53
2021/10/06 10:14:54;;;;;;;3.85;1.30;;;;;;;14.42;66.32;100527.50;5059913;28;20064;-57
2021/10/06 10:17:21;;;;;;;6.03;1.30;;;;;;;14.29;67.32;100524.69;5060346;28;20041;-53
2021/10/06 10:19:55;;;;;;;12.70;1.75;;;;;;;13.98;71.34;100531.00;5058196;28;20054;-55
2021/10/06 10:22:25;;;;;;;11.10;1.83;;;;;;;13.69;73.05;100525.53;5064500;28;20041;-54
2021/10/06 10:24:52;;;;;;;35.90;2.97;;;;;;;13.46;76.07;100533.13;5061000;28;20044;-54
2021/10/06 10:27:20;;;;;;;15.57;2.08;;;;;;;13.33;77.24;100538.31;5061363;28;20090;-54
2021/10/06 10:29:50;;;;;;;8.70;1.45;;;;;;;13.16;80.73;100541.91;5053260;28;20386;-55
2021/10/06 10:32:21;;;;;;;37.10;3.25;;;;;;;13.10;79.08;100536.88;5056740;28;20511;-54
2021/10/06 10:35:00;;;;;;;8.55;1.80;;;;;;;13.01;79.63;100537.38;5055279;28;20044;-52
2021/10/06 10:37:45;;;;;;;9.05;2.50;;;;;;;12.82;82.27;100550.81;5053813;28;20045;-52
2021/10/06 10:40:42;;;;;;;27.30;4.53;;;;;;;12.67;85.05;100566.72;5053299;28;20053;-51
2021/10/06 10:43:18;;;;;;;13.27;2.10;;;;;;;12.46;85.63;100582.81;5057965;28;20407;-53
2021/10/06 10:46:00;;;;;;;51.70;4.90;;;;;;;12.22;90.78;100600.03;5052838;28;20427;-52
2021/10/06 10:48:32;;;;;;;8.68;1.83;;;;;;;12.13;92.30;100603.97;5052694;28;20745;-52
2021/10/06 10:50:58;;;;;;;5.65;1.58;;;;;;;12.13;91.77;100600.47;5053043;28;20044;-52
2021/10/06 10:53:49;;;;;;;65.35;6.20;;;;;;;12.13;93.43;100601.31;5056528;28;20059;-51
2021/10/06 10:56:48;;;;;;;8.40;2.10;;;;;;;12.14;94.93;100603.03;5060939;28;20051;-52
2021/10/06 10:59:20;;;;;;;6.82;2.10;;;;;;;12.10;93.67;100601.50;5055998;28;20053;-52
2021/10/06 11:01:58;;;;;;;8.00;1.90;;;;;;;11.88;94.04;100583.13;5049650;28;20056;-52
2021/10/06 11:04:30;;;;;;;6.78;1.40;;;;;;;11.98;93.90;100610.06;5054057;28;20044;-52
2021/10/06 11:07:11;;;;;;;10.85;2.75;;;;;;;11.92;96.49;100615.69;5049328;28;20168;-51
2021/10/06 11:09:41;;;;;;;12.52;2.90;;;;;;;11.92;98.32;100610.38;5052744;28;20059;-51
2021/10/06 11:12:08;;;;;;;9.25;2.05;;;;;;;11.98;98.93;100604.75;5054439;28;20052;-51
2021/10/06 11:14:36;;;;;;;38.65;6.90;;;;;;;12.08;98.08;100605.16;5051116;28;20055;-56
2021/10/06 11:17:14;;;;;;;54.67;16.83;;;;;;;12.11;99.19;100603.22;5051324;28;20939;-53
2021/10/06 11:19:46;;;;;;;9.85;3.28;;;;;;;12.25;99.17;100591.91;5056743;28;20079;-53
2021/10/06 11:22:21;;;;;;;8.27;2.65;;;;;;;12.32;97.65;100592.44;5051277;28;20494;-52
2021/10/06 11:24:58;;;;;;;6.78;2.60;;;;;;;12.43;98.29;100590.13;5055680;28;20045;-54